Hallam, Nebraska
Current Conditions -  °F | °C
As of 2:55 PM on Thursday 20 Nov 2014 (Local Time) from KBIE Reporting Station
Clear Clear  
Wind Chill: 31°   Ceiling: Unl
Heat Index: 37°   Visibility: 10mi
Dew Point: 21°   Wind: 7mph
Humidity: 52%   Direction: 110°ESE
Pressure: 30.14"   Gusts: NA
Location:  40.54°N, 96.79°W
Report Text: KBIE 202055Z AUTO 11006KT 10SM CLR 03/M06 A3014 RMK AO2 T00271063
Loading
Personal Weather Stations






























Interactive Weather Map New forecast layout! Learn more

10-Day Weather Forecast

Advertisements
Track Severe Weather on mobile